sensor_id;sensor_type;location;lat;lon;timestamp;P1;durP1;ratioP1;P2;durP2;ratioP2
64061;SDS011;50308;47.438;-1.528;2023-10-19T00:00:40;21.92;;;3.35;;
64061;SDS011;50308;47.438;-1.528;2023-10-19T00:03:14;18.50;;;3.70;;
64061;SDS011;50308;47.438;-1.528;2023-10-19T00:05:40;12.25;;;2.55;;
64061;SDS011;50308;47.438;-1.528;2023-10-19T00:08:12;14.15;;;3.10;;
64061;SDS011;50308;47.438;-1.528;2023-10-19T00:10:45;16.27;;;2.97;;
64061;SDS011;50308;47.438;-1.528;2023-10-19T00:13:38;18.95;;;3.80;;
64061;SDS011;50308;47.438;-1.528;2023-10-19T00:16:08;14.75;;;3.33;;
64061;SDS011;50308;47.438;-1.528;2023-10-19T00:18:38;15.95;;;3.22;;
64061;SDS011;50308;47.438;-1.528;2023-10-19T00:21:08;12.52;;;3.10;;
64061;SDS011;50308;47.438;-1.528;2023-10-19T00:23:50;15.70;;;3.92;;
64061;SDS011;50308;47.438;-1.528;2023-10-19T00:26:21;13.75;;;3.15;;
64061;SDS011;50308;47.438;-1.528;2023-10-19T00:28:50;17.92;;;3.42;;
64061;SDS011;50308;47.438;-1.528;2023-10-19T00:31:21;14.27;;;3.38;;
64061;SDS011;50308;47.438;-1.528;2023-10-19T00:33:47;14.55;;;3.28;;
64061;SDS011;50308;47.438;-1.528;2023-10-19T00:36:16;20.50;;;3.35;;
64061;SDS011;50308;47.438;-1.528;2023-10-19T00:38:45;14.60;;;3.88;;
64061;SDS011;50308;47.438;-1.528;2023-10-19T00:41:14;17.30;;;3.40;;
64061;SDS011;50308;47.438;-1.528;2023-10-19T00:43:55;15.02;;;3.42;;
64061;SDS011;50308;47.438;-1.528;2023-10-19T00:46:30;15.00;;;3.50;;
64061;SDS011;50308;47.438;-1.528;2023-10-19T00:49:04;15.02;;;3.47;;
64061;SDS011;50308;47.438;-1.528;2023-10-19T00:51:42;15.93;;;3.30;;
64061;SDS011;50308;47.438;-1.528;2023-10-19T00:54:33;14.90;;;3.40;;
64061;SDS011;50308;47.438;-1.528;2023-10-19T00:57:02;8.85;;;3.08;;
64061;SDS011;50308;47.438;-1.528;2023-10-19T00:59:34;11.02;;;3.28;;
64061;SDS011;50308;47.438;-1.528;2023-10-19T01:02:13;8.63;;;1.95;;
64061;SDS011;50308;47.438;-1.528;2023-10-19T01:04:51;13.32;;;3.35;;
64061;SDS011;50308;47.438;-1.528;2023-10-19T01:07:21;12.80;;;2.13;;
64061;SDS011;50308;47.438;-1.528;2023-10-19T01:09:55;10.85;;;2.38;;
64061;SDS011;50308;47.438;-1.528;2023-10-19T01:12:24;8.13;;;2.35;;
64061;SDS011;50308;47.438;-1.528;2023-10-19T01:17:51;11.15;;;2.83;;
64061;SDS011;50308;47.438;-1.528;2023-10-19T01:20:19;9.07;;;2.50;;
64061;SDS011;50308;47.438;-1.528;2023-10-19T01:22:50;9.20;;;2.40;;
64061;SDS011;50308;47.438;-1.528;2023-10-19T01:25:53;13.38;;;3.42;;
64061;SDS011;50308;47.438;-1.528;2023-10-19T01:28:25;11.38;;;2.45;;
64061;SDS011;50308;47.438;-1.528;2023-10-19T01:31:07;9.02;;;2.03;;
64061;SDS011;50308;47.438;-1.528;2023-10-19T01:33:52;11.35;;;2.70;;
64061;SDS011;50308;47.438;-1.528;2023-10-19T01:36:21;14.65;;;2.75;;
64061;SDS011;50308;47.438;-1.528;2023-10-19T01:38:47;9.93;;;2.45;;
64061;SDS011;50308;47.438;-1.528;2023-10-19T01:41:13;10.27;;;2.50;;
64061;SDS011;50308;47.438;-1.528;2023-10-19T01:43:42;13.60;;;2.58;;
64061;SDS011;50308;47.438;-1.528;2023-10-19T01:46:08;11.73;;;3.67;;
64061;SDS011;50308;47.438;-1.528;2023-10-19T01:48:41;12.75;;;3.78;;
64061;SDS011;50308;47.438;-1.528;2023-10-19T01:51:09;10.32;;;2.38;;
64061;SDS011;50308;47.438;-1.528;2023-10-19T01:53:42;12.18;;;2.65;;
64061;SDS011;50308;47.438;-1.528;2023-10-19T01:56:11;17.50;;;3.10;;
64061;SDS011;50308;47.438;-1.528;2023-10-19T01:58:39;14.77;;;2.80;;
64061;SDS011;50308;47.438;-1.528;2023-10-19T02:01:06;11.23;;;3.42;;
64061;SDS011;50308;47.438;-1.528;2023-10-19T02:03:41;14.80;;;2.72;;
64061;SDS011;50308;47.438;-1.528;2023-10-19T02:06:08;13.60;;;2.40;;
64061;SDS011;50308;47.438;-1.528;2023-10-19T02:08:55;11.23;;;2.53;;
64061;SDS011;50308;47.438;-1.528;2023-10-19T02:11:26;26.65;;;4.25;;
64061;SDS011;50308;47.438;-1.528;2023-10-19T02:13:53;17.92;;;2.88;;
64061;SDS011;50308;47.438;-1.528;2023-10-19T02:16:21;16.30;;;3.65;;
64061;SDS011;50308;47.438;-1.528;2023-10-19T02:18:47;16.63;;;2.80;;
64061;SDS011;50308;47.438;-1.528;2023-10-19T02:21:14;14.85;;;3.03;;
64061;SDS011;50308;47.438;-1.528;2023-10-19T02:23:44;10.25;;;2.33;;
64061;SDS011;50308;47.438;-1.528;2023-10-19T02:26:10;10.43;;;2.40;;
64061;SDS011;50308;47.438;-1.528;2023-10-19T02:28:38;10.00;;;2.15;;
64061;SDS011;50308;47.438;-1.528;2023-10-19T02:31:05;5.78;;;1.50;;
64061;SDS011;50308;47.438;-1.528;2023-10-19T02:33:43;7.65;;;1.48;;
64061;SDS011;50308;47.438;-1.528;2023-10-19T02:36:15;5.20;;;1.70;;
64061;SDS011;50308;47.438;-1.528;2023-10-19T02:38:42;6.57;;;0.98;;
64061;SDS011;50308;47.438;-1.528;2023-10-19T02:41:13;5.35;;;1.17;;
64061;SDS011;50308;47.438;-1.528;2023-10-19T02:43:40;5.45;;;0.82;;
64061;SDS011;50308;47.438;-1.528;2023-10-19T02:46:10;3.57;;;0.80;;
64061;SDS011;50308;47.438;-1.528;2023-10-19T02:48:38;6.68;;;1.10;;
64061;SDS011;50308;47.438;-1.528;2023-10-19T02:51:09;2.88;;;0.73;;
64061;SDS011;50308;47.438;-1.528;2023-10-19T02:53:36;4.65;;;1.00;;
64061;SDS011;50308;47.438;-1.528;2023-10-19T02:56:13;4.72;;;0.90;;
64061;SDS011;50308;47.438;-1.528;2023-10-19T02:58:42;5.10;;;1.08;;
64061;SDS011;50308;47.438;-1.528;2023-10-19T03:01:16;4.22;;;1.08;;
64061;SDS011;50308;47.438;-1.528;2023-10-19T03:03:46;4.38;;;0.95;;
64061;SDS011;50308;47.438;-1.528;2023-10-19T03:06:19;5.10;;;0.90;;
64061;SDS011;50308;47.438;-1.528;2023-10-19T03:08:46;4.47;;;1.02;;
64061;SDS011;50308;47.438;-1.528;2023-10-19T03:11:13;7.15;;;1.02;;
64061;SDS011;50308;47.438;-1.528;2023-10-19T03:13:40;4.72;;;0.63;;
64061;SDS011;50308;47.438;-1.528;2023-10-19T03:16:06;4.20;;;1.13;;
64061;SDS011;50308;47.438;-1.528;2023-10-19T03:18:33;4.70;;;1.10;;
64061;SDS011;50308;47.438;-1.528;2023-10-19T03:21:00;4.13;;;0.85;;
64061;SDS011;50308;47.438;-1.528;2023-10-19T03:23:29;4.13;;;0.82;;
64061;SDS011;50308;47.438;-1.528;2023-10-19T03:25:59;4.80;;;0.93;;
64061;SDS011;50308;47.438;-1.528;2023-10-19T03:28:43;4.57;;;1.02;;
64061;SDS011;50308;47.438;-1.528;2023-10-19T03:31:11;2.90;;;0.52;;
64061;SDS011;50308;47.438;-1.528;2023-10-19T03:33:43;4.00;;;0.85;;
64061;SDS011;50308;47.438;-1.528;2023-10-19T03:36:10;5.47;;;1.10;;
64061;SDS011;50308;47.438;-1.528;2023-10-19T03:38:38;5.68;;;0.90;;
64061;SDS011;50308;47.438;-1.528;2023-10-19T03:41:06;5.70;;;0.95;;
64061;SDS011;50308;47.438;-1.528;2023-10-19T03:43:33;5.82;;;1.25;;
64061;SDS011;50308;47.438;-1.528;2023-10-19T03:46:01;5.53;;;1.25;;
64061;SDS011;50308;47.438;-1.528;2023-10-19T03:48:34;6.50;;;1.02;;
64061;SDS011;50308;47.438;-1.528;2023-10-19T03:51:04;9.15;;;1.65;;
64061;SDS011;50308;47.438;-1.528;2023-10-19T03:53:30;3.88;;;0.75;;
64061;SDS011;50308;47.438;-1.528;2023-10-19T03:55:56;7.60;;;1.23;;
64061;SDS011;50308;47.438;-1.528;2023-10-19T03:58:22;7.00;;;1.80;;
64061;SDS011;50308;47.438;-1.528;2023-10-19T04:00:48;3.30;;;1.20;;
64061;SDS011;50308;47.438;-1.528;2023-10-19T04:03:15;7.72;;;1.27;;
64061;SDS011;50308;47.438;-1.528;2023-10-19T04:05:42;6.68;;;1.20;;
64061;SDS011;50308;47.438;-1.528;2023-10-19T04:08:12;6.50;;;1.15;;
64061;SDS011;50308;47.438;-1.528;2023-10-19T04:10:45;3.35;;;1.02;;
64061;SDS011;50308;47.438;-1.528;2023-10-19T04:13:13;6.18;;;1.50;;
64061;SDS011;50308;47.438;-1.528;2023-10-19T04:15:38;6.05;;;1.13;;
64061;SDS011;50308;47.438;-1.528;2023-10-19T04:18:04;5.57;;;1.60;;
64061;SDS011;50308;47.438;-1.528;2023-10-19T04:20:39;5.15;;;1.65;;
64061;SDS011;50308;47.438;-1.528;2023-10-19T04:23:08;3.40;;;1.10;;
64061;SDS011;50308;47.438;-1.528;2023-10-19T04:25:39;7.28;;;1.20;;
64061;SDS011;50308;47.438;-1.528;2023-10-19T04:28:05;4.72;;;1.67;;
64061;SDS011;50308;47.438;-1.528;2023-10-19T04:30:30;6.65;;;1.30;;
64061;SDS011;50308;47.438;-1.528;2023-10-19T04:32:58;7.30;;;1.88;;
64061;SDS011;50308;47.438;-1.528;2023-10-19T04:35:27;3.83;;;1.10;;
64061;SDS011;50308;47.438;-1.528;2023-10-19T04:37:59;4.80;;;1.00;;
64061;SDS011;50308;47.438;-1.528;2023-10-19T04:40:26;5.15;;;0.90;;
64061;SDS011;50308;47.438;-1.528;2023-10-19T04:42:52;4.78;;;0.95;;
64061;SDS011;50308;47.438;-1.528;2023-10-19T04:45:18;5.53;;;1.20;;
64061;SDS011;50308;47.438;-1.528;2023-10-19T04:47:44;4.70;;;0.93;;
64061;SDS011;50308;47.438;-1.528;2023-10-19T04:50:11;8.00;;;1.52;;
64061;SDS011;50308;47.438;-1.528;2023-10-19T04:52:37;3.33;;;1.08;;
64061;SDS011;50308;47.438;-1.528;2023-10-19T04:55:04;3.83;;;0.80;;
64061;SDS011;50308;47.438;-1.528;2023-10-19T04:57:30;4.90;;;1.27;;
64061;SDS011;50308;47.438;-1.528;2023-10-19T04:59:56;3.13;;;1.00;;
64061;SDS011;50308;47.438;-1.528;2023-10-19T05:02:22;3.00;;;0.93;;
64061;SDS011;50308;47.438;-1.528;2023-10-19T05:04:48;2.53;;;0.80;;
64061;SDS011;50308;47.438;-1.528;2023-10-19T05:07:14;4.00;;;1.17;;
64061;SDS011;50308;47.438;-1.528;2023-10-19T05:09:43;5.63;;;1.00;;
64061;SDS011;50308;47.438;-1.528;2023-10-19T05:12:10;4.70;;;1.10;;
64061;SDS011;50308;47.438;-1.528;2023-10-19T05:14:36;6.22;;;0.80;;
64061;SDS011;50308;47.438;-1.528;2023-10-19T05:17:03;3.72;;;1.63;;
64061;SDS011;50308;47.438;-1.528;2023-10-19T05:19:30;3.70;;;1.25;;
64061;SDS011;50308;47.438;-1.528;2023-10-19T05:21:56;2.47;;;0.80;;
64061;SDS011;50308;47.438;-1.528;2023-10-19T05:24:22;5.32;;;1.15;;
64061;SDS011;50308;47.438;-1.528;2023-10-19T05:26:49;3.42;;;1.25;;
64061;SDS011;50308;47.438;-1.528;2023-10-19T05:29:14;2.75;;;0.70;;
64061;SDS011;50308;47.438;-1.528;2023-10-19T05:31:40;3.50;;;1.00;;
64061;SDS011;50308;47.438;-1.528;2023-10-19T05:34:06;4.68;;;1.13;;
64061;SDS011;50308;47.438;-1.528;2023-10-19T05:36:33;3.08;;;0.73;;
64061;SDS011;50308;47.438;-1.528;2023-10-19T05:38:59;3.50;;;1.08;;
64061;SDS011;50308;47.438;-1.528;2023-10-19T05:41:24;2.30;;;0.70;;
64061;SDS011;50308;47.438;-1.528;2023-10-19T05:43:51;3.10;;;1.50;;
64061;SDS011;50308;47.438;-1.528;2023-10-19T05:46:18;4.93;;;1.30;;
64061;SDS011;50308;47.438;-1.528;2023-10-19T05:48:46;4.53;;;0.82;;
64061;SDS011;50308;47.438;-1.528;2023-10-19T05:51:14;6.43;;;0.88;;
64061;SDS011;50308;47.438;-1.528;2023-10-19T05:53:40;4.22;;;1.00;;
64061;SDS011;50308;47.438;-1.528;2023-10-19T05:56:06;2.75;;;1.00;;
64061;SDS011;50308;47.438;-1.528;2023-10-19T05:58:32;2.65;;;0.90;;
64061;SDS011;50308;47.438;-1.528;2023-10-19T06:01:00;4.43;;;0.90;;
64061;SDS011;50308;47.438;-1.528;2023-10-19T06:03:26;3.58;;;0.90;;
64061;SDS011;50308;47.438;-1.528;2023-10-19T06:05:51;4.68;;;0.93;;
64061;SDS011;50308;47.438;-1.528;2023-10-19T06:08:21;6.68;;;1.20;;
64061;SDS011;50308;47.438;-1.528;2023-10-19T06:10:50;4.22;;;0.90;;
64061;SDS011;50308;47.438;-1.528;2023-10-19T06:13:17;6.18;;;1.60;;
64061;SDS011;50308;47.438;-1.528;2023-10-19T06:15:43;4.25;;;0.90;;
64061;SDS011;50308;47.438;-1.528;2023-10-19T06:18:09;6.05;;;1.20;;
64061;SDS011;50308;47.438;-1.528;2023-10-19T06:20:35;2.05;;;0.80;;
64061;SDS011;50308;47.438;-1.528;2023-10-19T06:23:01;4.05;;;1.08;;
64061;SDS011;50308;47.438;-1.528;2023-10-19T06:25:31;8.55;;;1.48;;
64061;SDS011;50308;47.438;-1.528;2023-10-19T06:27:58;5.22;;;1.23;;
64061;SDS011;50308;47.438;-1.528;2023-10-19T06:30:24;6.97;;;1.10;;
64061;SDS011;50308;47.438;-1.528;2023-10-19T06:32:52;16.45;;;2.20;;
64061;SDS011;50308;47.438;-1.528;2023-10-19T06:35:19;4.20;;;0.98;;
64061;SDS011;50308;47.438;-1.528;2023-10-19T06:37:45;6.80;;;1.08;;
64061;SDS011;50308;47.438;-1.528;2023-10-19T06:40:12;4.72;;;1.42;;
64061;SDS011;50308;47.438;-1.528;2023-10-19T06:42:45;5.65;;;1.40;;
64061;SDS011;50308;47.438;-1.528;2023-10-19T06:45:12;5.43;;;1.00;;
64061;SDS011;50308;47.438;-1.528;2023-10-19T06:47:44;5.60;;;1.42;;
64061;SDS011;50308;47.438;-1.528;2023-10-19T06:50:11;6.28;;;1.13;;
64061;SDS011;50308;47.438;-1.528;2023-10-19T06:52:40;6.88;;;1.10;;
64061;SDS011;50308;47.438;-1.528;2023-10-19T06:55:08;6.70;;;1.38;;
64061;SDS011;50308;47.438;-1.528;2023-10-19T07:00:09;4.38;;;1.10;;
64061;SDS011;50308;47.438;-1.528;2023-10-19T07:02:45;5.45;;;1.70;;
64061;SDS011;50308;47.438;-1.528;2023-10-19T07:05:11;6.72;;;1.20;;
64061;SDS011;50308;47.438;-1.528;2023-10-19T07:07:42;4.70;;;1.40;;
64061;SDS011;50308;47.438;-1.528;2023-10-19T07:10:08;3.75;;;1.13;;
64061;SDS011;50308;47.438;-1.528;2023-10-19T07:12:37;7.00;;;1.20;;
64061;SDS011;50308;47.438;-1.528;2023-10-19T07:15:06;9.18;;;1.58;;
64061;SDS011;50308;47.438;-1.528;2023-10-19T07:17:36;7.22;;;1.83;;
64061;SDS011;50308;47.438;-1.528;2023-10-19T07:20:03;6.70;;;1.43;;
64061;SDS011;50308;47.438;-1.528;2023-10-19T07:22:32;4.68;;;1.10;;
64061;SDS011;50308;47.438;-1.528;2023-10-19T07:24:58;4.18;;;1.30;;
64061;SDS011;50308;47.438;-1.528;2023-10-19T07:27:24;6.38;;;1.75;;
64061;SDS011;50308;47.438;-1.528;2023-10-19T07:29:53;10.35;;;1.58;;
64061;SDS011;50308;47.438;-1.528;2023-10-19T07:32:19;7.82;;;1.65;;
64061;SDS011;50308;47.438;-1.528;2023-10-19T07:34:44;10.30;;;1.85;;
64061;SDS011;50308;47.438;-1.528;2023-10-19T07:37:10;8.05;;;1.63;;
64061;SDS011;50308;47.438;-1.528;2023-10-19T07:39:46;8.40;;;1.77;;
64061;SDS011;50308;47.438;-1.528;2023-10-19T07:42:12;4.72;;;1.23;;
64061;SDS011;50308;47.438;-1.528;2023-10-19T07:44:39;7.47;;;2.17;;
64061;SDS011;50308;47.438;-1.528;2023-10-19T07:47:05;7.10;;;1.70;;
64061;SDS011;50308;47.438;-1.528;2023-10-19T07:49:34;6.68;;;1.60;;
64061;SDS011;50308;47.438;-1.528;2023-10-19T07:52:06;6.53;;;1.30;;
64061;SDS011;50308;47.438;-1.528;2023-10-19T07:54:35;6.55;;;1.30;;
64061;SDS011;50308;47.438;-1.528;2023-10-19T07:57:01;6.47;;;1.52;;
64061;SDS011;50308;47.438;-1.528;2023-10-19T07:59:33;6.65;;;1.95;;
64061;SDS011;50308;47.438;-1.528;2023-10-19T08:02:00;3.75;;;1.35;;
64061;SDS011;50308;47.438;-1.528;2023-10-19T08:04:29;8.95;;;1.80;;
64061;SDS011;50308;47.438;-1.528;2023-10-19T08:06:56;9.85;;;1.30;;
64061;SDS011;50308;47.438;-1.528;2023-10-19T08:09:23;5.75;;;1.73;;
64061;SDS011;50308;47.438;-1.528;2023-10-19T08:11:51;9.88;;;1.98;;
64061;SDS011;50308;47.438;-1.528;2023-10-19T08:14:24;6.18;;;1.95;;
64061;SDS011;50308;47.438;-1.528;2023-10-19T08:16:51;8.27;;;2.00;;
64061;SDS011;50308;47.438;-1.528;2023-10-19T08:19:18;9.93;;;1.85;;
64061;SDS011;50308;47.438;-1.528;2023-10-19T08:21:44;8.48;;;1.75;;
64061;SDS011;50308;47.438;-1.528;2023-10-19T08:24:10;5.32;;;1.30;;
64061;SDS011;50308;47.438;-1.528;2023-10-19T08:26:42;7.05;;;2.05;;
64061;SDS011;50308;47.438;-1.528;2023-10-19T08:29:10;9.00;;;2.45;;
64061;SDS011;50308;47.438;-1.528;2023-10-19T08:31:42;9.32;;;2.15;;
64061;SDS011;50308;47.438;-1.528;2023-10-19T08:34:10;8.55;;;2.40;;
64061;SDS011;50308;47.438;-1.528;2023-10-19T08:36:39;8.32;;;1.65;;
64061;SDS011;50308;47.438;-1.528;2023-10-19T08:39:05;8.15;;;2.35;;
64061;SDS011;50308;47.438;-1.528;2023-10-19T08:41:34;9.13;;;2.00;;
64061;SDS011;50308;47.438;-1.528;2023-10-19T08:44:04;6.25;;;1.98;;
64061;SDS011;50308;47.438;-1.528;2023-10-19T08:46:45;7.57;;;2.15;;
64061;SDS011;50308;47.438;-1.528;2023-10-19T08:49:14;5.57;;;1.50;;
64061;SDS011;50308;47.438;-1.528;2023-10-19T08:51:44;7.95;;;2.40;;
64061;SDS011;50308;47.438;-1.528;2023-10-19T08:54:12;10.27;;;2.67;;
64061;SDS011;50308;47.438;-1.528;2023-10-19T08:56:39;7.43;;;1.80;;
64061;SDS011;50308;47.438;-1.528;2023-10-19T08:59:06;9.15;;;2.03;;
64061;SDS011;50308;47.438;-1.528;2023-10-19T09:01:40;5.60;;;1.30;;
64061;SDS011;50308;47.438;-1.528;2023-10-19T09:04:08;8.95;;;2.38;;
64061;SDS011;50308;47.438;-1.528;2023-10-19T09:06:35;9.05;;;1.83;;
64061;SDS011;50308;47.438;-1.528;2023-10-19T09:09:10;5.53;;;1.60;;
64061;SDS011;50308;47.438;-1.528;2023-10-19T09:11:44;8.23;;;1.58;;
64061;SDS011;50308;47.438;-1.528;2023-10-19T09:14:11;5.75;;;1.92;;
64061;SDS011;50308;47.438;-1.528;2023-10-19T09:16:38;8.07;;;1.70;;
64061;SDS011;50308;47.438;-1.528;2023-10-19T09:19:40;9.02;;;1.73;;
64061;SDS011;50308;47.438;-1.528;2023-10-19T09:22:07;9.68;;;1.80;;
64061;SDS011;50308;47.438;-1.528;2023-10-19T09:24:41;5.63;;;1.42;;
64061;SDS011;50308;47.438;-1.528;2023-10-19T09:27:08;8.15;;;1.77;;
64061;SDS011;50308;47.438;-1.528;2023-10-19T09:29:33;8.13;;;2.22;;
64061;SDS011;50308;47.438;-1.528;2023-10-19T09:31:59;9.48;;;2.58;;
64061;SDS011;50308;47.438;-1.528;2023-10-19T09:34:29;4.90;;;1.48;;
64061;SDS011;50308;47.438;-1.528;2023-10-19T09:37:01;8.23;;;1.65;;
64061;SDS011;50308;47.438;-1.528;2023-10-19T09:39:31;9.30;;;2.47;;
64061;SDS011;50308;47.438;-1.528;2023-10-19T09:42:07;9.10;;;2.17;;
64061;SDS011;50308;47.438;-1.528;2023-10-19T09:44:42;11.52;;;2.65;;
64061;SDS011;50308;47.438;-1.528;2023-10-19T09:47:10;10.90;;;2.33;;
64061;SDS011;50308;47.438;-1.528;2023-10-19T09:49:38;9.85;;;2.00;;
64061;SDS011;50308;47.438;-1.528;2023-10-19T09:52:08;6.20;;;1.92;;
64061;SDS011;50308;47.438;-1.528;2023-10-19T09:57:27;6.72;;;1.60;;
64061;SDS011;50308;47.438;-1.528;2023-10-19T10:00:03;7.00;;;2.33;;
64061;SDS011;50308;47.438;-1.528;2023-10-19T10:02:41;7.80;;;2.38;;
64061;SDS011;50308;47.438;-1.528;2023-10-19T10:08:41;12.20;;;2.10;;
64061;SDS011;50308;47.438;-1.528;2023-10-19T10:11:13;7.22;;;1.70;;
64061;SDS011;50308;47.438;-1.528;2023-10-19T10:13:42;8.65;;;2.10;;
64061;SDS011;50308;47.438;-1.528;2023-10-19T10:16:11;7.43;;;2.20;;
64061;SDS011;50308;47.438;-1.528;2023-10-19T10:18:40;5.70;;;2.10;;
64061;SDS011;50308;47.438;-1.528;2023-10-19T10:26:10;13.75;;;2.30;;
64061;SDS011;50308;47.438;-1.528;2023-10-19T10:28:38;13.32;;;2.42;;
64061;SDS011;50308;47.438;-1.528;2023-10-19T10:31:09;10.52;;;2.58;;
64061;SDS011;50308;47.438;-1.528;2023-10-19T10:33:50;8.98;;;2.40;;
64061;SDS011;50308;47.438;-1.528;2023-10-19T10:36:19;8.48;;;2.30;;
64061;SDS011;50308;47.438;-1.528;2023-10-19T10:38:46;7.55;;;2.28;;
64061;SDS011;50308;47.438;-1.528;2023-10-19T10:41:23;9.20;;;2.08;;
64061;SDS011;50308;47.438;-1.528;2023-10-19T10:43:56;16.88;;;3.15;;
64061;SDS011;50308;47.438;-1.528;2023-10-19T10:46:23;11.93;;;2.17;;
64061;SDS011;50308;47.438;-1.528;2023-10-19T10:48:50;6.95;;;2.05;;
64061;SDS011;50308;47.438;-1.528;2023-10-19T10:51:23;8.30;;;1.90;;
64061;SDS011;50308;47.438;-1.528;2023-10-19T10:53:53;8.80;;;1.90;;
64061;SDS011;50308;47.438;-1.528;2023-10-19T10:56:20;7.15;;;1.63;;
64061;SDS011;50308;47.438;-1.528;2023-10-19T10:58:48;11.93;;;2.30;;
64061;SDS011;50308;47.438;-1.528;2023-10-19T11:01:14;9.88;;;2.00;;
64061;SDS011;50308;47.438;-1.528;2023-10-19T11:03:41;10.60;;;2.30;;
64061;SDS011;50308;47.438;-1.528;2023-10-19T11:06:11;9.90;;;1.75;;
64061;SDS011;50308;47.438;-1.528;2023-10-19T11:08:37;8.25;;;2.17;;
64061;SDS011;50308;47.438;-1.528;2023-10-19T11:11:07;9.43;;;1.63;;
64061;SDS011;50308;47.438;-1.528;2023-10-19T11:13:37;12.48;;;2.13;;
64061;SDS011;50308;47.438;-1.528;2023-10-19T11:16:04;5.88;;;1.98;;
64061;SDS011;50308;47.438;-1.528;2023-10-19T11:18:38;10.45;;;1.63;;
64061;SDS011;50308;47.438;-1.528;2023-10-19T11:21:06;7.88;;;1.63;;
64061;SDS011;50308;47.438;-1.528;2023-10-19T11:23:38;11.63;;;2.13;;
64061;SDS011;50308;47.438;-1.528;2023-10-19T11:26:04;9.23;;;1.75;;
64061;SDS011;50308;47.438;-1.528;2023-10-19T11:28:30;7.03;;;1.55;;
64061;SDS011;50308;47.438;-1.528;2023-10-19T11:31:14;8.75;;;2.08;;
64061;SDS011;50308;47.438;-1.528;2023-10-19T11:33:40;7.70;;;1.50;;
64061;SDS011;50308;47.438;-1.528;2023-10-19T11:36:11;7.30;;;1.70;;
64061;SDS011;50308;47.438;-1.528;2023-10-19T11:38:41;8.00;;;2.00;;
64061;SDS011;50308;47.438;-1.528;2023-10-19T11:41:08;7.60;;;2.03;;
64061;SDS011;50308;47.438;-1.528;2023-10-19T11:43:35;9.18;;;2.10;;
64061;SDS011;50308;47.438;-1.528;2023-10-19T11:46:01;7.97;;;1.73;;
64061;SDS011;50308;47.438;-1.528;2023-10-19T11:48:29;10.52;;;2.72;;
64061;SDS011;50308;47.438;-1.528;2023-10-19T11:50:56;12.30;;;2.35;;
64061;SDS011;50308;47.438;-1.528;2023-10-19T11:53:21;6.20;;;2.20;;
64061;SDS011;50308;47.438;-1.528;2023-10-19T11:55:47;12.18;;;2.30;;
64061;SDS011;50308;47.438;-1.528;2023-10-19T11:58:13;13.77;;;2.90;;
64061;SDS011;50308;47.438;-1.528;2023-10-19T12:00:40;9.32;;;2.08;;
64061;SDS011;50308;47.438;-1.528;2023-10-19T12:03:09;10.55;;;2.13;;
64061;SDS011;50308;47.438;-1.528;2023-10-19T12:05:35;10.30;;;2.00;;
64061;SDS011;50308;47.438;-1.528;2023-10-19T12:08:02;10.45;;;1.83;;
64061;SDS011;50308;47.438;-1.528;2023-10-19T12:10:28;10.38;;;2.08;;
64061;SDS011;50308;47.438;-1.528;2023-10-19T12:13:06;8.73;;;1.95;;
64061;SDS011;50308;47.438;-1.528;2023-10-19T12:15:33;5.97;;;1.50;;
64061;SDS011;50308;47.438;-1.528;2023-10-19T12:17:59;8.48;;;1.58;;
64061;SDS011;50308;47.438;-1.528;2023-10-19T12:20:25;7.38;;;2.05;;
64061;SDS011;50308;47.438;-1.528;2023-10-19T12:22:51;6.00;;;1.25;;
64061;SDS011;50308;47.438;-1.528;2023-10-19T12:25:19;10.93;;;1.98;;
64061;SDS011;50308;47.438;-1.528;2023-10-19T12:27:45;8.40;;;2.00;;
64061;SDS011;50308;47.438;-1.528;2023-10-19T12:30:11;7.43;;;1.65;;
64061;SDS011;50308;47.438;-1.528;2023-10-19T12:32:50;7.20;;;1.85;;
64061;SDS011;50308;47.438;-1.528;2023-10-19T12:35:16;11.55;;;2.03;;
64061;SDS011;50308;47.438;-1.528;2023-10-19T12:37:45;6.30;;;1.60;;
64061;SDS011;50308;47.438;-1.528;2023-10-19T12:40:14;10.02;;;1.95;;
64061;SDS011;50308;47.438;-1.528;2023-10-19T12:42:53;11.23;;;2.05;;
64061;SDS011;50308;47.438;-1.528;2023-10-19T12:45:22;7.68;;;1.70;;
64061;SDS011;50308;47.438;-1.528;2023-10-19T12:47:49;10.77;;;2.08;;
64061;SDS011;50308;47.438;-1.528;2023-10-19T12:50:16;10.98;;;1.70;;
64061;SDS011;50308;47.438;-1.528;2023-10-19T12:52:51;13.82;;;1.90;;
64061;SDS011;50308;47.438;-1.528;2023-10-19T12:55:17;14.38;;;2.20;;
64061;SDS011;50308;47.438;-1.528;2023-10-19T12:57:43;8.30;;;1.58;;
64061;SDS011;50308;47.438;-1.528;2023-10-19T13:00:09;10.00;;;1.63;;
64061;SDS011;50308;47.438;-1.528;2023-10-19T13:02:54;10.70;;;1.90;;
64061;SDS011;50308;47.438;-1.528;2023-10-19T13:05:31;11.32;;;2.03;;
64061;SDS011;50308;47.438;-1.528;2023-10-19T13:07:58;11.83;;;1.70;;
64061;SDS011;50308;47.438;-1.528;2023-10-19T13:10:33;12.07;;;2.10;;
64061;SDS011;50308;47.438;-1.528;2023-10-19T13:13:03;11.25;;;2.17;;
64061;SDS011;50308;47.438;-1.528;2023-10-19T13:15:34;12.98;;;2.03;;
64061;SDS011;50308;47.438;-1.528;2023-10-19T13:18:01;16.83;;;2.13;;
64061;SDS011;50308;47.438;-1.528;2023-10-19T13:20:28;10.98;;;2.35;;
64061;SDS011;50308;47.438;-1.528;2023-10-19T13:23:03;16.33;;;2.83;;
64061;SDS011;50308;47.438;-1.528;2023-10-19T13:25:32;14.07;;;1.67;;
64061;SDS011;50308;47.438;-1.528;2023-10-19T13:28:13;14.73;;;2.22;;
64061;SDS011;50308;47.438;-1.528;2023-10-19T13:30:40;13.57;;;2.85;;
64061;SDS011;50308;47.438;-1.528;2023-10-19T13:33:07;12.82;;;2.08;;
64061;SDS011;50308;47.438;-1.528;2023-10-19T13:35:37;16.60;;;3.00;;
64061;SDS011;50308;47.438;-1.528;2023-10-19T13:38:06;9.90;;;2.58;;
64061;SDS011;50308;47.438;-1.528;2023-10-19T13:40:36;14.27;;;2.22;;
64061;SDS011;50308;47.438;-1.528;2023-10-19T13:43:04;8.93;;;2.13;;
64061;SDS011;50308;47.438;-1.528;2023-10-19T13:45:31;12.60;;;2.75;;
64061;SDS011;50308;47.438;-1.528;2023-10-19T13:48:04;9.60;;;2.35;;
64061;SDS011;50308;47.438;-1.528;2023-10-19T13:50:31;13.60;;;2.80;;
64061;SDS011;50308;47.438;-1.528;2023-10-19T13:52:57;11.73;;;3.20;;
64061;SDS011;50308;47.438;-1.528;2023-10-19T13:55:25;8.10;;;2.05;;
64061;SDS011;50308;47.438;-1.528;2023-10-19T13:57:52;12.75;;;3.28;;
64061;SDS011;50308;47.438;-1.528;2023-10-19T14:00:18;7.85;;;2.20;;
64061;SDS011;50308;47.438;-1.528;2023-10-19T14:02:48;9.55;;;2.13;;
64061;SDS011;50308;47.438;-1.528;2023-10-19T14:05:14;10.13;;;2.70;;
64061;SDS011;50308;47.438;-1.528;2023-10-19T14:07:40;11.55;;;2.67;;
64061;SDS011;50308;47.438;-1.528;2023-10-19T14:10:06;7.95;;;2.55;;
64061;SDS011;50308;47.438;-1.528;2023-10-19T14:12:37;11.13;;;3.10;;
64061;SDS011;50308;47.438;-1.528;2023-10-19T14:15:03;11.23;;;2.30;;
64061;SDS011;50308;47.438;-1.528;2023-10-19T14:17:29;12.52;;;2.65;;
64061;SDS011;50308;47.438;-1.528;2023-10-19T14:19:55;7.22;;;2.20;;
64061;SDS011;50308;47.438;-1.528;2023-10-19T14:22:20;10.18;;;2.05;;
64061;SDS011;50308;47.438;-1.528;2023-10-19T14:24:46;8.73;;;2.42;;
64061;SDS011;50308;47.438;-1.528;2023-10-19T14:27:12;9.27;;;2.50;;
64061;SDS011;50308;47.438;-1.528;2023-10-19T14:29:38;7.40;;;2.03;;
64061;SDS011;50308;47.438;-1.528;2023-10-19T14:32:04;8.85;;;2.13;;
64061;SDS011;50308;47.438;-1.528;2023-10-19T14:34:30;6.50;;;1.83;;
64061;SDS011;50308;47.438;-1.528;2023-10-19T14:36:55;9.65;;;2.05;;
64061;SDS011;50308;47.438;-1.528;2023-10-19T14:39:21;4.60;;;1.52;;
64061;SDS011;50308;47.438;-1.528;2023-10-19T14:41:46;7.65;;;1.92;;
64061;SDS011;50308;47.438;-1.528;2023-10-19T14:44:12;8.10;;;1.58;;
64061;SDS011;50308;47.438;-1.528;2023-10-19T14:46:39;9.52;;;2.42;;
64061;SDS011;50308;47.438;-1.528;2023-10-19T14:49:04;5.63;;;1.38;;
64061;SDS011;50308;47.438;-1.528;2023-10-19T14:51:31;10.48;;;1.70;;
64061;SDS011;50308;47.438;-1.528;2023-10-19T14:53:57;15.10;;;2.05;;
64061;SDS011;50308;47.438;-1.528;2023-10-19T14:56:23;13.10;;;2.15;;
64061;SDS011;50308;47.438;-1.528;2023-10-19T14:58:49;9.40;;;1.85;;